createdAt,value
2018-09-17T00:01:58.995Z,14.11
2018-09-17T00:04:27.059Z,14.06
2018-09-17T00:06:55.118Z,14.03
2018-09-17T00:09:23.231Z,14.03
2018-09-17T00:11:51.296Z,13.98
2018-09-17T00:14:19.372Z,13.94
2018-09-17T00:16:47.440Z,13.89
2018-09-17T00:19:15.516Z,13.87
2018-09-17T00:21:43.568Z,13.86
2018-09-17T00:24:11.636Z,13.80
2018-09-17T00:26:39.692Z,13.71
2018-09-17T00:29:07.747Z,13.64
2018-09-17T00:31:35.804Z,13.54
2018-09-17T00:34:03.870Z,13.50
2018-09-17T00:36:31.929Z,13.50
2018-09-17T00:38:59.980Z,13.47
2018-09-17T00:41:28.039Z,13.43
2018-09-17T00:43:56.232Z,13.42
2018-09-17T00:46:24.315Z,13.38
2018-09-17T00:48:52.359Z,13.35
2018-09-17T00:51:20.814Z,13.34
2018-09-17T00:53:48.871Z,13.33
2018-09-17T00:56:16.930Z,13.24
2018-09-17T00:58:44.972Z,13.20
2018-09-17T01:01:13.044Z,13.19
2018-09-17T01:03:41.233Z,13.17
2018-09-17T01:06:09.286Z,13.16
2018-09-17T01:08:37.324Z,13.09
2018-09-17T01:11:05.410Z,13.06
2018-09-17T01:13:33.462Z,12.99
2018-09-17T01:16:01.504Z,12.94
2018-09-17T01:18:29.597Z,12.92
2018-09-17T01:20:57.675Z,12.89
2018-09-17T01:23:25.731Z,12.85
2018-09-17T01:25:53.793Z,12.84
2018-09-17T01:28:21.861Z,12.85
2018-09-17T01:30:50.081Z,12.83
2018-09-17T01:33:18.127Z,12.84
2018-09-17T01:35:46.192Z,12.86
2018-09-17T01:38:14.248Z,12.90
2018-09-17T01:40:42.341Z,12.90
2018-09-17T01:43:10.499Z,12.90
2018-09-17T01:45:38.575Z,12.88
2018-09-17T01:48:06.630Z,12.88
2018-09-17T01:50:34.694Z,12.85
2018-09-17T01:53:02.752Z,12.85
2018-09-17T01:55:30.865Z,12.83
2018-09-17T01:57:59.048Z,12.80
2018-09-17T02:00:27.107Z,12.80
2018-09-17T02:02:55.170Z,12.80
2018-09-17T02:05:23.236Z,12.80
2018-09-17T02:07:51.299Z,12.78
2018-09-17T02:10:19.376Z,12.77
2018-09-17T02:12:47.447Z,12.77
2018-09-17T02:15:15.512Z,12.76
2018-09-17T02:17:43.583Z,12.76
2018-09-17T02:20:11.665Z,12.76
2018-09-17T02:22:39.720Z,12.71
2018-09-17T02:25:07.796Z,12.71
2018-09-17T02:27:35.880Z,12.68
2018-09-17T02:30:03.955Z,12.68
2018-09-17T02:32:32.047Z,12.68
2018-09-17T02:35:00.123Z,12.70
2018-09-17T02:37:29.229Z,12.69
2018-09-17T02:39:57.351Z,12.70
2018-09-17T02:42:25.436Z,12.71
2018-09-17T02:44:53.508Z,12.70
2018-09-17T02:47:21.580Z,12.68
2018-09-17T02:49:49.648Z,12.68
2018-09-17T02:52:17.736Z,12.67
2018-09-17T02:54:45.787Z,12.65
2018-09-17T02:57:13.840Z,12.65
2018-09-17T02:59:41.912Z,12.61
2018-09-17T03:02:09.985Z,12.59
2018-09-17T03:04:38.107Z,12.57
2018-09-17T03:07:06.155Z,12.53
2018-09-17T03:09:34.225Z,12.49
2018-09-17T03:12:02.326Z,12.48
2018-09-17T03:14:30.798Z,12.48
2018-09-17T03:17:12.511Z,12.49
2018-09-17T03:19:46.978Z,12.50
2018-09-17T03:22:15.604Z,12.42
2018-09-17T03:24:43.670Z,12.38
2018-09-17T03:27:11.764Z,12.36
2018-09-17T03:29:39.876Z,12.38
2018-09-17T03:32:07.949Z,12.38
2018-09-17T03:34:36.012Z,12.29
2018-09-17T03:37:04.107Z,12.28
2018-09-17T03:39:32.177Z,12.24
2018-09-17T03:42:00.298Z,12.23
2018-09-17T03:44:28.404Z,12.18
2018-09-17T03:46:56.543Z,12.18
2018-09-17T03:49:24.729Z,12.17
2018-09-17T03:51:53.130Z,12.16
2018-09-17T03:54:21.184Z,12.18
2018-09-17T03:56:49.270Z,12.16
2018-09-17T03:59:17.323Z,12.17
2018-09-17T04:01:45.435Z,12.19
2018-09-17T04:04:13.520Z,12.21
2018-09-17T04:06:41.623Z,12.23
2018-09-17T04:09:09.801Z,12.24
2018-09-17T04:11:37.851Z,12.24
2018-09-17T04:14:07.379Z,12.19
2018-09-17T04:16:35.479Z,12.22
2018-09-17T04:19:03.551Z,12.25
2018-09-17T04:21:31.640Z,12.28
2018-09-17T04:23:59.742Z,12.30
2018-09-17T04:26:27.876Z,12.32
2018-09-17T04:28:55.955Z,12.35
2018-09-17T04:31:24.112Z,12.37
2018-09-17T04:33:52.144Z,12.37
2018-09-17T04:36:20.232Z,12.38
2018-09-17T04:38:48.363Z,12.41
2018-09-17T04:41:16.446Z,12.45
2018-09-17T04:43:44.563Z,12.45
2018-09-17T04:46:12.664Z,12.47
2018-09-17T04:48:40.764Z,12.50
2018-09-17T04:51:08.856Z,12.51
2018-09-17T04:53:36.964Z,12.50
2018-09-17T04:56:05.104Z,12.49
2018-09-17T04:58:33.184Z,12.49
2018-09-17T05:01:01.315Z,12.46
2018-09-17T05:03:29.408Z,12.40
2018-09-17T05:05:57.472Z,12.39
2018-09-17T05:08:25.544Z,12.39
2018-09-17T05:10:53.692Z,12.37
2018-09-17T05:13:22.160Z,12.43
2018-09-17T05:15:50.081Z,12.41
2018-09-17T05:18:18.184Z,12.47
2018-09-17T05:20:46.415Z,12.50
2018-09-17T05:23:14.416Z,12.62
2018-09-17T05:25:42.575Z,12.70
2018-09-17T05:28:10.659Z,12.80
2018-09-17T05:30:38.724Z,12.93
2018-09-17T05:33:06.891Z,13.01
2018-09-17T05:35:34.953Z,13.11
2018-09-17T05:38:03.039Z,13.24
2018-09-17T05:40:31.196Z,13.38
2018-09-17T05:42:59.332Z,13.49
2018-09-17T05:45:27.430Z,13.57
2018-09-17T05:47:55.638Z,13.65
2018-09-17T05:50:23.724Z,13.75
2018-09-17T05:52:51.893Z,13.88
2018-09-17T05:55:19.970Z,14.05
2018-09-17T05:57:48.070Z,14.23
2018-09-17T06:00:16.180Z,14.46
2018-09-17T06:02:44.316Z,14.46
2018-09-17T06:05:12.818Z,14.83
2018-09-17T06:07:40.940Z,15.03
2018-09-17T06:10:14.115Z,15.25
2018-09-17T06:12:42.889Z,15.46
2018-09-17T06:15:10.987Z,15.77
2018-09-17T06:17:39.100Z,16.03
2018-09-17T06:20:07.271Z,16.18
2018-09-17T06:22:35.396Z,16.17
2018-09-17T06:25:03.840Z,16.25
2018-09-17T06:27:31.943Z,16.39
2018-09-17T06:30:00.146Z,16.44
2018-09-17T06:32:28.212Z,16.50
2018-09-17T06:34:56.755Z,16.51
2018-09-17T06:37:24.929Z,16.74
2018-09-17T06:39:53.053Z,16.91
2018-09-17T06:42:21.160Z,17.05
2018-09-17T06:44:49.279Z,17.22
2018-09-17T06:47:17.458Z,17.31
2018-09-17T06:49:45.576Z,17.42
2018-09-17T06:52:13.651Z,17.45
2018-09-17T06:54:42.209Z,17.50
2018-09-17T06:57:10.389Z,17.59
2018-09-17T06:59:38.548Z,17.78
2018-09-17T07:02:06.983Z,18.10
2018-09-17T07:04:35.093Z,18.28
2018-09-17T07:07:03.199Z,18.39
2018-09-17T07:09:31.296Z,18.53
2018-09-17T07:11:59.415Z,18.75
2018-09-17T07:14:27.627Z,19.01
2018-09-17T07:16:55.721Z,19.47
2018-09-17T07:19:23.885Z,19.90
2018-09-17T07:21:52.013Z,20.42
2018-09-17T07:24:20.329Z,20.90
2018-09-17T07:26:48.412Z,21.39
2018-09-17T07:29:16.519Z,21.95
2018-09-17T07:31:44.618Z,22.31
2018-09-17T07:34:12.728Z,22.62
2018-09-17T07:36:40.859Z,23.13
2018-09-17T07:39:10.616Z,23.53
2018-09-17T07:41:38.832Z,23.90
2018-09-17T07:44:06.938Z,24.31
2018-09-17T07:46:35.231Z,24.67
2018-09-17T07:49:03.464Z,24.87
2018-09-17T07:51:31.576Z,25.05
2018-09-17T07:54:06.098Z,25.37
2018-09-17T07:56:34.239Z,25.75
2018-09-17T07:59:02.427Z,26.21
2018-09-17T08:01:30.635Z,26.51
2018-09-17T08:03:58.727Z,26.81
2018-09-17T08:06:26.858Z,27.08
2018-09-17T08:08:54.965Z,27.31
2018-09-17T08:11:23.098Z,27.39
2018-09-17T08:13:51.182Z,27.26
2018-09-17T08:16:19.292Z,27.15
2018-09-17T08:18:47.391Z,27.10
2018-09-17T08:21:15.550Z,26.98
2018-09-17T08:23:43.867Z,26.85
2018-09-17T08:26:11.952Z,26.90
2018-09-17T08:28:40.095Z,26.71
2018-09-17T08:31:08.377Z,26.59
2018-09-17T08:33:37.006Z,26.48
2018-09-17T08:36:10.349Z,26.36
2018-09-17T08:38:38.438Z,26.73
2018-09-17T08:41:06.597Z,26.92
2018-09-17T08:43:35.390Z,26.83
2018-09-17T08:46:03.481Z,27.02
2018-09-17T08:48:31.560Z,27.12
2018-09-17T08:50:59.752Z,27.06
2018-09-17T08:53:27.804Z,26.98
2018-09-17T08:56:00.602Z,26.97
2018-09-17T08:58:39.380Z,26.93
2018-09-17T09:02:12.368Z,26.95
2018-09-17T09:04:47.237Z,26.87
2018-09-17T09:07:22.382Z,26.77
2018-09-17T09:09:51.686Z,26.59
2018-09-17T09:12:25.407Z,26.43
2018-09-17T09:15:02.639Z,26.33
2018-09-17T09:17:30.779Z,26.24
2018-09-17T09:19:58.869Z,25.95
2018-09-17T09:22:26.976Z,25.70
2018-09-17T09:24:55.060Z,25.46
2018-09-17T09:27:23.164Z,25.29
2018-09-17T09:29:51.281Z,25.21
2018-09-17T09:32:19.424Z,25.15
2018-09-17T09:34:50.643Z,25.07
2018-09-17T09:37:18.741Z,25.05
2018-09-17T09:39:50.258Z,25.00
2018-09-17T09:42:19.449Z,24.93
2018-09-17T09:44:47.607Z,24.91
2018-09-17T09:47:15.779Z,24.90
2018-09-17T09:49:44.063Z,24.90
2018-09-17T09:52:12.256Z,24.91
2018-09-17T09:54:40.491Z,24.91
2018-09-17T09:57:08.614Z,24.88
2018-09-17T09:59:38.364Z,24.93
2018-09-17T10:02:12.502Z,24.98
2018-09-17T10:04:40.914Z,25.01
2018-09-17T10:07:09.145Z,25.01
2018-09-17T10:09:42.642Z,25.05
2018-09-17T10:12:19.543Z,25.11
2018-09-17T10:14:52.930Z,25.11
2018-09-17T10:17:26.360Z,25.17
2018-09-17T10:19:54.518Z,25.24
2018-09-17T10:22:22.685Z,25.28
2018-09-17T10:24:50.835Z,25.28
2018-09-17T10:27:19.273Z,25.33
2018-09-17T10:29:47.450Z,25.31
2018-09-17T10:32:15.690Z,25.34
2018-09-17T10:34:43.790Z,25.40
2018-09-17T10:37:12.161Z,25.44
2018-09-17T10:39:40.365Z,25.35
2018-09-17T10:42:08.509Z,25.34
2018-09-17T10:44:37.169Z,25.30
2018-09-17T10:47:05.360Z,25.33
2018-09-17T10:49:33.436Z,25.43
2018-09-17T10:52:01.508Z,25.49
2018-09-17T10:57:11.522Z,25.54
2018-09-17T10:59:39.624Z,25.56
2018-09-17T11:02:07.874Z,25.61
2018-09-17T11:04:36.219Z,25.69
2018-09-17T11:07:04.651Z,25.69
2018-09-17T11:09:32.820Z,25.71
2018-09-17T11:12:01.000Z,25.69
2018-09-17T11:14:29.186Z,25.71
2018-09-17T11:16:57.462Z,25.69
2018-09-17T11:19:25.625Z,25.64
2018-09-17T11:21:53.752Z,25.62
2018-09-17T11:24:22.015Z,25.62
2018-09-17T11:26:50.229Z,25.60
2018-09-17T11:29:21.725Z,25.59
2018-09-17T11:31:50.508Z,25.58
2018-09-17T11:34:18.641Z,25.60
2018-09-17T11:39:28.667Z,25.62
2018-09-17T11:41:56.810Z,25.60
2018-09-17T11:44:25.005Z,25.62
2018-09-17T11:46:53.094Z,25.63
2018-09-17T11:49:21.228Z,25.63
2018-09-17T11:51:49.373Z,25.64
2018-09-17T11:54:17.464Z,25.73
2018-09-17T11:56:45.560Z,25.81
2018-09-17T11:59:13.696Z,25.82
2018-09-17T12:01:47.248Z,25.90
2018-09-17T12:04:16.935Z,25.97
2018-09-17T12:06:50.304Z,26.03
2018-09-17T12:09:18.409Z,26.04
2018-09-17T12:11:46.558Z,26.04
2018-09-17T12:14:14.724Z,26.08
2018-09-17T12:16:42.847Z,26.12
2018-09-17T12:19:10.959Z,26.11
2018-09-17T12:21:39.168Z,26.15
2018-09-17T12:24:07.270Z,26.08
2018-09-17T12:26:35.390Z,26.16
2018-09-17T12:29:03.476Z,26.18
2018-09-17T12:31:31.599Z,26.25
2018-09-17T12:33:59.767Z,26.29
2018-09-17T12:36:27.892Z,26.36
2018-09-17T12:39:01.842Z,26.42
2018-09-17T12:41:31.789Z,26.47
2018-09-17T12:44:01.181Z,26.54
2018-09-17T12:46:29.283Z,26.55
2018-09-17T12:48:57.432Z,26.55
2018-09-17T12:51:25.560Z,26.60
2018-09-17T12:53:53.829Z,26.61
2018-09-17T12:56:22.116Z,26.54
2018-09-17T12:58:53.620Z,26.52
2018-09-17T13:01:21.752Z,26.54
2018-09-17T13:03:49.867Z,26.53
2018-09-17T13:06:18.290Z,26.53
2018-09-17T13:08:46.389Z,26.57
2018-09-17T13:11:14.533Z,26.61
2018-09-17T13:13:42.618Z,26.63
2018-09-17T13:16:11.440Z,26.60
2018-09-17T13:18:39.534Z,26.63
2018-09-17T13:21:07.763Z,26.69
2018-09-17T13:23:35.896Z,26.69
2018-09-17T13:26:05.051Z,26.60
2018-09-17T13:28:35.745Z,26.64
2018-09-17T13:31:04.446Z,26.64
2018-09-17T13:33:32.740Z,26.70
2018-09-17T13:36:04.198Z,26.70
2018-09-17T13:38:33.222Z,26.71
2018-09-17T13:41:01.540Z,26.66
2018-09-17T13:43:29.672Z,26.67
2018-09-17T13:46:00.507Z,26.64
2018-09-17T13:48:32.915Z,26.67
2018-09-17T13:51:01.520Z,26.75
2018-09-17T13:53:29.933Z,26.78
2018-09-17T13:55:58.657Z,26.88
2018-09-17T13:58:28.746Z,26.90
2018-09-17T14:00:56.876Z,26.92
2018-09-17T14:03:24.997Z,26.91
2018-09-17T14:05:55.126Z,26.96
2018-09-17T14:08:23.268Z,26.97
2018-09-17T14:10:52.112Z,26.99
2018-09-17T14:13:21.655Z,26.97
2018-09-17T14:15:55.268Z,26.97
2018-09-17T14:18:27.794Z,26.98
2018-09-17T14:20:55.906Z,26.98
2018-09-17T14:23:24.027Z,26.98
2018-09-17T14:25:53.475Z,27.00
2018-09-17T14:28:22.659Z,26.99
2018-09-17T14:30:52.545Z,26.98
2018-09-17T14:33:28.145Z,26.98
2018-09-17T14:35:56.303Z,27.00
2018-09-17T14:38:25.003Z,27.01
2018-09-17T14:40:53.432Z,27.01
2018-09-17T14:43:21.560Z,27.01
2018-09-17T14:45:49.867Z,26.99
2018-09-17T14:48:18.192Z,27.00
2018-09-17T14:50:46.301Z,26.99
2018-09-17T14:53:14.429Z,26.97
2018-09-17T14:55:42.580Z,26.93
2018-09-17T14:58:11.157Z,26.91
2018-09-17T15:00:39.248Z,26.90
2018-09-17T15:03:07.443Z,26.89
2018-09-17T15:05:35.585Z,26.86
2018-09-17T15:08:03.830Z,26.83
2018-09-17T15:10:32.031Z,26.80
2018-09-17T15:13:00.061Z,26.77
2018-09-17T15:15:28.576Z,26.73
2018-09-17T15:17:56.908Z,26.74
2018-09-17T15:20:25.217Z,26.71
2018-09-17T15:22:53.264Z,26.64
2018-09-17T15:25:21.385Z,26.60
2018-09-17T15:27:49.683Z,26.55
2018-09-17T15:30:17.795Z,26.51
2018-09-17T15:32:45.926Z,26.48
2018-09-17T15:35:14.084Z,26.42
2018-09-17T15:37:42.319Z,26.38
2018-09-17T15:40:10.726Z,26.34
2018-09-17T15:42:38.945Z,26.30
2018-09-17T15:45:07.068Z,26.26
2018-09-17T15:47:35.179Z,26.25
2018-09-17T15:50:03.376Z,26.21
2018-09-17T15:52:31.569Z,26.19
2018-09-17T15:54:59.772Z,26.17
2018-09-17T15:57:27.888Z,26.14
2018-09-17T15:59:56.025Z,26.11
2018-09-17T16:02:24.220Z,26.07
2018-09-17T16:04:52.397Z,26.04
2018-09-17T16:07:20.634Z,26.03
2018-09-17T16:09:48.833Z,26.02
2018-09-17T16:12:17.064Z,25.99
2018-09-17T16:14:45.334Z,25.93
2018-09-17T16:17:13.536Z,25.89
2018-09-17T16:19:41.689Z,25.86
2018-09-17T16:22:09.799Z,25.82
2018-09-17T16:24:37.934Z,25.80
2018-09-17T16:27:06.020Z,25.76
2018-09-17T16:29:34.240Z,25.72
2018-09-17T16:32:02.358Z,25.69
2018-09-17T16:34:30.451Z,25.66
2018-09-17T16:36:58.536Z,25.62
2018-09-17T16:39:26.658Z,25.59
2018-09-17T16:41:54.827Z,25.58
2018-09-17T16:44:22.916Z,25.56
2018-09-17T16:46:51.230Z,25.51
2018-09-17T16:49:19.369Z,25.48
2018-09-17T16:51:47.624Z,25.46
2018-09-17T16:54:15.761Z,25.45
2018-09-17T16:56:43.950Z,25.41
2018-09-17T16:59:12.063Z,25.40
2018-09-17T17:01:40.157Z,25.36
2018-09-17T17:04:08.401Z,25.30
2018-09-17T17:06:36.497Z,25.26
2018-09-17T17:09:07.054Z,25.20
2018-09-17T17:11:35.147Z,25.14
2018-09-17T17:14:03.269Z,25.06
2018-09-17T17:16:31.523Z,24.97
2018-09-17T17:18:59.918Z,24.89
2018-09-17T17:21:28.107Z,24.77
2018-09-17T17:23:56.303Z,24.67
2018-09-17T17:26:24.432Z,24.54
2018-09-17T17:28:52.593Z,24.39
2018-09-17T17:31:20.716Z,24.24
2018-09-17T17:33:49.015Z,24.08
2018-09-17T17:36:17.132Z,23.93
2018-09-17T17:38:45.218Z,23.77
2018-09-17T17:41:13.324Z,23.62
2018-09-17T17:43:41.488Z,23.48
2018-09-17T17:46:09.716Z,23.33
2018-09-17T17:48:37.732Z,23.20
2018-09-17T17:51:06.337Z,23.03
2018-09-17T17:53:34.545Z,22.90
2018-09-17T17:56:02.647Z,22.69
2018-09-17T17:58:30.755Z,22.64
2018-09-17T18:00:58.994Z,22.52
2018-09-17T18:03:27.119Z,22.41
2018-09-17T18:05:55.232Z,22.30
2018-09-17T18:08:23.354Z,22.18
2018-09-17T18:10:51.770Z,22.07
2018-09-17T18:13:19.861Z,21.97
2018-09-17T18:15:48.168Z,21.89
2018-09-17T18:18:16.309Z,21.80
2018-09-17T18:20:44.463Z,21.69
2018-09-17T18:23:12.595Z,21.61
2018-09-17T18:25:40.755Z,21.50
2018-09-17T18:28:08.862Z,21.38
2018-09-17T18:30:36.984Z,21.26
2018-09-17T18:33:05.133Z,21.16
2018-09-17T18:35:33.279Z,21.07
2018-09-17T18:38:01.522Z,20.99
2018-09-17T18:40:29.638Z,20.88
2018-09-17T18:42:57.866Z,20.77
2018-09-17T18:45:25.996Z,20.66
2018-09-17T18:47:54.834Z,20.60
2018-09-17T18:50:23.085Z,20.52
2018-09-17T18:52:51.172Z,20.45
2018-09-17T18:55:19.277Z,20.41
2018-09-17T18:57:47.381Z,20.35
2018-09-17T19:00:15.535Z,20.28
2018-09-17T19:02:43.606Z,20.20
2018-09-17T19:05:11.734Z,20.07
2018-09-17T19:07:39.801Z,19.96
2018-09-17T19:10:07.928Z,19.88
2018-09-17T19:12:36.078Z,19.80
2018-09-17T19:15:09.583Z,19.72
2018-09-17T19:17:42.077Z,19.61
2018-09-17T19:20:11.485Z,19.51
2018-09-17T19:22:44.850Z,19.42
2018-09-17T19:25:14.972Z,19.35
2018-09-17T19:27:48.346Z,19.29
2018-09-17T19:30:17.011Z,19.23
2018-09-17T19:32:45.385Z,19.15
2018-09-17T19:35:13.745Z,19.07
2018-09-17T19:37:47.233Z,18.98
2018-09-17T19:40:17.786Z,18.91
2018-09-17T19:42:47.074Z,18.83
2018-09-17T19:45:20.676Z,18.75
2018-09-17T19:47:49.528Z,18.69
2018-09-17T19:50:22.920Z,18.63
2018-09-17T19:52:50.939Z,18.59
2018-09-17T19:55:19.074Z,18.53
2018-09-17T19:57:52.642Z,18.49
2018-09-17T20:00:21.075Z,18.44
2018-09-17T20:02:49.148Z,18.42
2018-09-17T20:05:22.643Z,18.38
2018-09-17T20:07:50.710Z,18.32
2018-09-17T20:10:18.866Z,18.24
2018-09-17T20:12:46.915Z,18.18
2018-09-17T20:15:15.016Z,18.14
2018-09-17T20:17:43.128Z,18.08
2018-09-17T20:20:11.291Z,18.02
2018-09-17T20:22:39.538Z,17.98
2018-09-17T20:25:08.074Z,17.94
2018-09-17T20:27:36.549Z,17.89
2018-09-17T20:30:04.879Z,17.83
2018-09-17T20:32:33.068Z,17.79
2018-09-17T20:35:01.181Z,17.76
2018-09-17T20:37:29.338Z,17.74
2018-09-17T20:39:57.501Z,17.70
2018-09-17T20:42:25.676Z,17.67
2018-09-17T20:44:53.836Z,17.65
2018-09-17T20:47:22.105Z,17.63
2018-09-17T20:49:50.310Z,17.61
2018-09-17T20:52:18.420Z,17.57
2018-09-17T20:54:46.593Z,17.53
2018-09-17T20:57:15.000Z,17.50
2018-09-17T20:59:46.984Z,17.46
2018-09-17T21:02:15.138Z,17.38
2018-09-17T21:04:43.318Z,17.28
2018-09-17T21:07:12.563Z,17.21
2018-09-17T21:09:40.841Z,17.18
2018-09-17T21:12:09.066Z,17.13
2018-09-17T21:14:37.168Z,17.08
2018-09-17T21:17:06.105Z,17.03
2018-09-17T21:19:34.340Z,16.98
2018-09-17T21:22:02.449Z,16.95
2018-09-17T21:24:30.542Z,16.91
2018-09-17T21:26:58.637Z,16.87
2018-09-17T21:29:26.696Z,16.84
2018-09-17T21:31:54.786Z,16.82
2018-09-17T21:34:22.921Z,16.80
2018-09-17T21:36:51.044Z,16.77
2018-09-17T21:39:19.077Z,16.77
2018-09-17T21:41:47.189Z,16.74
2018-09-17T21:44:15.267Z,16.71
2018-09-17T21:46:43.357Z,16.70
2018-09-17T21:49:11.486Z,16.68
2018-09-17T21:51:39.566Z,16.68
2018-09-17T21:54:07.673Z,16.70
2018-09-17T21:56:35.764Z,16.72
2018-09-17T21:59:03.846Z,16.74
2018-09-17T22:01:31.936Z,16.75
2018-09-17T22:04:00.012Z,16.76
2018-09-17T22:06:28.120Z,16.75
2018-09-17T22:08:56.193Z,16.75
2018-09-17T22:11:24.267Z,16.74
2018-09-17T22:13:52.369Z,16.72
2018-09-17T22:16:20.452Z,16.72
2018-09-17T22:18:48.544Z,16.72
2018-09-17T22:21:16.656Z,16.72
2018-09-17T22:23:44.728Z,16.72
2018-09-17T22:26:12.845Z,16.71
2018-09-17T22:28:40.931Z,16.71
2018-09-17T22:31:09.021Z,16.71
2018-09-17T22:33:37.099Z,16.68
2018-09-17T22:36:05.224Z,16.66
2018-09-17T22:38:33.305Z,16.64
2018-09-17T22:41:01.376Z,16.64
2018-09-17T22:43:29.459Z,16.65
2018-09-17T22:45:57.532Z,16.64
2018-09-17T22:48:25.617Z,16.62
2018-09-17T22:50:53.688Z,16.60
2018-09-17T22:53:21.787Z,16.57
2018-09-17T22:55:49.915Z,16.55
2018-09-17T22:58:17.993Z,16.51
2018-09-17T23:00:46.099Z,16.50
2018-09-17T23:03:14.195Z,16.47
2018-09-17T23:05:42.452Z,16.45
2018-09-17T23:08:10.571Z,16.43
2018-09-17T23:10:38.628Z,16.42
2018-09-17T23:13:06.691Z,16.40
2018-09-17T23:15:34.818Z,16.38
2018-09-17T23:18:02.891Z,16.37
2018-09-17T23:20:30.978Z,16.38
2018-09-17T23:22:59.072Z,16.37
2018-09-17T23:25:27.166Z,16.33
2018-09-17T23:27:55.271Z,16.32
2018-09-17T23:30:23.406Z,16.31
2018-09-17T23:32:52.509Z,16.29
2018-09-17T23:35:21.444Z,16.29
2018-09-17T23:37:49.519Z,16.31
2018-09-17T23:40:17.604Z,16.30
2018-09-17T23:42:45.726Z,16.28
2018-09-17T23:45:13.800Z,16.27
2018-09-17T23:47:41.881Z,16.27
2018-09-17T23:50:09.980Z,16.26
2018-09-17T23:52:38.048Z,16.24
2018-09-17T23:55:06.479Z,16.22
2018-09-17T23:57:34.544Z,16.18
